LFRQ/UIP METAR and TAF weather

Enter ICAO airport designator
Station Type Date Time Source
LFRQ METAR 2022/11/27 08:30 UTC NOAA

LFRQ 270830Z AUTO 15004KT 0900 0800 R27/1300U -RA FG SCT003 BKN034 BKN054 12/12 Q1015 TEMPO BKN002


Station Type Date Time Source
LFRQ Decoded METAR 2022/11/27 08:30 UTC NOAA

Quimper, France (LFRQ) 47-58N 004-10W 94M
Nov 27, 2022 - 03:30 AM EST / 2022.11.27 0830 UTC
Wind: from the SSE (150 degrees) at 5 MPH (4 KT):0
Visibility: less than 1 mile:0
Sky conditions: mostly cloudy
Weather: light rain; fog
Temperature: 53 F (12 C)
Dew Point: 53 F (12 C)
Relative Humidity: 100%
Pressure (altimeter): 29.97 in. Hg (1015 hPa)
ob: LFRQ 270830Z AUTO 15004KT 0900 0800 R27/1300U -RA FG SCT003 BKN034 BKN054 12/12 Q1015 TEMPO BKN002
cycle: 8

Station Type Date Time Source
LFRQ TAF 2022/11/27 08:14 UTC NOAA

TAF
AMD LFRQ 270806Z 2708/2806 VRB05KT 9999 BKN016
TEMPO 2708/2713 3000 RA OVC005 PROB40
TEMPO 2708/2713 0800 FG BKN002
TEMPO 2713/2717 3000 SHRA BKN010 BKN020TCU
TEMPO 2720/2723 3000 SHRA BKN020TCU
BECMG 2722/2724 26010KT
TEMPO 2803/2806 4000 SHRA BKN025CB PROB40
TEMPO 2803/2806 26015G30KT 2000 TSRAGS BKN020CB

Example: see airport list